sensor_id;sensor_type;location;lat;lon;timestamp;P1;durP1;ratioP1;P2;durP2;ratioP2
18931;SDS011;9598;50.954;3.112;2023-01-04T00:02:53;3.88;;;1.80;;
18931;SDS011;9598;50.954;3.112;2023-01-04T00:07:55;1.50;;;1.40;;
18931;SDS011;9598;50.954;3.112;2023-01-04T00:12:58;5.20;;;2.22;;
18931;SDS011;9598;50.954;3.112;2023-01-04T00:18:02;4.90;;;1.77;;
18931;SDS011;9598;50.954;3.112;2023-01-04T00:23:04;1.88;;;1.75;;
18931;SDS011;9598;50.954;3.112;2023-01-04T00:28:06;3.63;;;2.15;;
18931;SDS011;9598;50.954;3.112;2023-01-04T00:33:09;1.98;;;1.88;;
18931;SDS011;9598;50.954;3.112;2023-01-04T00:38:11;2.83;;;2.60;;
18931;SDS011;9598;50.954;3.112;2023-01-04T00:43:13;2.40;;;2.15;;
18931;SDS011;9598;50.954;3.112;2023-01-04T00:48:17;3.92;;;2.05;;
18931;SDS011;9598;50.954;3.112;2023-01-04T00:53:19;2.03;;;1.60;;
18931;SDS011;9598;50.954;3.112;2023-01-04T00:58:21;1.70;;;1.60;;
18931;SDS011;9598;50.954;3.112;2023-01-04T01:03:24;1.90;;;1.70;;
18931;SDS011;9598;50.954;3.112;2023-01-04T01:08:26;3.00;;;2.20;;
18931;SDS011;9598;50.954;3.112;2023-01-04T01:13:28;2.38;;;1.65;;
18931;SDS011;9598;50.954;3.112;2023-01-04T01:18:32;5.22;;;2.13;;
18931;SDS011;9598;50.954;3.112;2023-01-04T01:23:35;5.40;;;2.08;;
18931;SDS011;9598;50.954;3.112;2023-01-04T01:28:38;4.90;;;2.00;;
18931;SDS011;9598;50.954;3.112;2023-01-04T01:33:42;2.55;;;1.67;;
18931;SDS011;9598;50.954;3.112;2023-01-04T01:38:45;2.85;;;1.95;;
18931;SDS011;9598;50.954;3.112;2023-01-04T01:43:49;2.42;;;1.85;;
18931;SDS011;9598;50.954;3.112;2023-01-04T01:48:55;2.13;;;1.67;;
18931;SDS011;9598;50.954;3.112;2023-01-04T01:54:03;2.58;;;1.42;;
18931;SDS011;9598;50.954;3.112;2023-01-04T01:59:10;3.50;;;1.85;;
18931;SDS011;9598;50.954;3.112;2023-01-04T02:04:17;1.77;;;1.67;;
18931;SDS011;9598;50.954;3.112;2023-01-04T02:09:19;2.95;;;1.90;;
18931;SDS011;9598;50.954;3.112;2023-01-04T02:14:23;2.35;;;1.50;;
18931;SDS011;9598;50.954;3.112;2023-01-04T02:19:52;2.90;;;1.85;;
18931;SDS011;9598;50.954;3.112;2023-01-04T02:25:16;2.30;;;1.83;;
18931;SDS011;9598;50.954;3.112;2023-01-04T02:30:37;2.92;;;1.80;;
18931;SDS011;9598;50.954;3.112;2023-01-04T02:36:01;2.90;;;2.08;;
18931;SDS011;9598;50.954;3.112;2023-01-04T02:41:13;3.10;;;1.88;;
18931;SDS011;9598;50.954;3.112;2023-01-04T02:46:21;2.20;;;1.73;;
18931;SDS011;9598;50.954;3.112;2023-01-04T02:51:30;2.28;;;2.08;;
18931;SDS011;9598;50.954;3.112;2023-01-04T02:56:39;2.53;;;1.85;;
18931;SDS011;9598;50.954;3.112;2023-01-04T03:02:02;2.53;;;1.83;;
18931;SDS011;9598;50.954;3.112;2023-01-04T03:07:32;2.03;;;1.73;;
18931;SDS011;9598;50.954;3.112;2023-01-04T03:12:40;2.85;;;1.52;;
18931;SDS011;9598;50.954;3.112;2023-01-04T03:17:48;1.65;;;1.55;;
18931;SDS011;9598;50.954;3.112;2023-01-04T03:22:54;2.03;;;1.67;;
18931;SDS011;9598;50.954;3.112;2023-01-04T03:28:17;2.40;;;2.10;;
18931;SDS011;9598;50.954;3.112;2023-01-04T03:33:39;2.10;;;1.90;;
18931;SDS011;9598;50.954;3.112;2023-01-04T03:39:00;1.70;;;1.35;;
18931;SDS011;9598;50.954;3.112;2023-01-04T03:44:27;2.00;;;1.50;;
18931;SDS011;9598;50.954;3.112;2023-01-04T03:49:51;3.30;;;2.20;;
18931;SDS011;9598;50.954;3.112;2023-01-04T03:54:58;1.83;;;1.45;;
18931;SDS011;9598;50.954;3.112;2023-01-04T04:00:04;2.78;;;1.70;;
18931;SDS011;9598;50.954;3.112;2023-01-04T04:05:12;1.88;;;1.40;;
18931;SDS011;9598;50.954;3.112;2023-01-04T04:10:36;3.25;;;1.65;;
18931;SDS011;9598;50.954;3.112;2023-01-04T04:15:38;1.60;;;1.50;;
18931;SDS011;9598;50.954;3.112;2023-01-04T04:20:40;1.42;;;1.38;;
18931;SDS011;9598;50.954;3.112;2023-01-04T04:25:44;2.03;;;1.50;;
18931;SDS011;9598;50.954;3.112;2023-01-04T04:30:47;2.78;;;1.20;;
18931;SDS011;9598;50.954;3.112;2023-01-04T04:35:50;1.23;;;1.23;;
18931;SDS011;9598;50.954;3.112;2023-01-04T04:40:53;1.55;;;1.20;;
18931;SDS011;9598;50.954;3.112;2023-01-04T04:46:12;1.60;;;1.40;;
18931;SDS011;9598;50.954;3.112;2023-01-04T04:51:14;1.60;;;1.20;;
18931;SDS011;9598;50.954;3.112;2023-01-04T04:56:18;1.35;;;1.25;;
18931;SDS011;9598;50.954;3.112;2023-01-04T05:01:20;0.98;;;0.95;;
18931;SDS011;9598;50.954;3.112;2023-01-04T05:06:22;1.65;;;1.00;;
18931;SDS011;9598;50.954;3.112;2023-01-04T05:11:26;1.42;;;0.88;;
18931;SDS011;9598;50.954;3.112;2023-01-04T05:16:45;1.02;;;0.90;;
18931;SDS011;9598;50.954;3.112;2023-01-04T05:21:47;0.88;;;0.80;;
18931;SDS011;9598;50.954;3.112;2023-01-04T05:26:51;0.80;;;0.80;;
18931;SDS011;9598;50.954;3.112;2023-01-04T05:31:53;2.58;;;0.90;;
18931;SDS011;9598;50.954;3.112;2023-01-04T05:36:55;1.45;;;0.80;;
18931;SDS011;9598;50.954;3.112;2023-01-04T05:41:58;2.08;;;1.00;;
18931;SDS011;9598;50.954;3.112;2023-01-04T05:47:18;1.08;;;0.98;;
18931;SDS011;9598;50.954;3.112;2023-01-04T05:52:20;1.95;;;1.05;;
18931;SDS011;9598;50.954;3.112;2023-01-04T05:57:23;2.95;;;1.25;;
18931;SDS011;9598;50.954;3.112;2023-01-04T06:02:26;1.95;;;1.30;;
18931;SDS011;9598;50.954;3.112;2023-01-04T06:07:30;5.30;;;2.10;;
18931;SDS011;9598;50.954;3.112;2023-01-04T06:12:33;6.45;;;1.92;;
18931;SDS011;9598;50.954;3.112;2023-01-04T06:17:36;4.53;;;1.90;;
18931;SDS011;9598;50.954;3.112;2023-01-04T06:22:39;4.38;;;2.10;;
18931;SDS011;9598;50.954;3.112;2023-01-04T06:27:43;7.10;;;2.10;;
18931;SDS011;9598;50.954;3.112;2023-01-04T06:32:45;5.50;;;2.58;;
18931;SDS011;9598;50.954;3.112;2023-01-04T06:37:47;10.77;;;2.80;;
18931;SDS011;9598;50.954;3.112;2023-01-04T06:42:51;7.97;;;2.50;;
18931;SDS011;9598;50.954;3.112;2023-01-04T06:47:53;7.18;;;2.83;;
18931;SDS011;9598;50.954;3.112;2023-01-04T06:52:55;7.60;;;2.17;;
18931;SDS011;9598;50.954;3.112;2023-01-04T06:57:58;7.40;;;2.60;;
18931;SDS011;9598;50.954;3.112;2023-01-04T07:03:00;7.43;;;2.80;;
18931;SDS011;9598;50.954;3.112;2023-01-04T07:08:02;6.47;;;2.60;;
18931;SDS011;9598;50.954;3.112;2023-01-04T07:13:06;9.43;;;3.17;;
18931;SDS011;9598;50.954;3.112;2023-01-04T07:18:09;8.10;;;2.55;;
18931;SDS011;9598;50.954;3.112;2023-01-04T07:23:11;9.90;;;3.22;;
18931;SDS011;9598;50.954;3.112;2023-01-04T07:28:15;10.85;;;2.53;;
18931;SDS011;9598;50.954;3.112;2023-01-04T07:33:38;6.38;;;2.10;;
18931;SDS011;9598;50.954;3.112;2023-01-04T07:38:40;6.00;;;2.10;;
18931;SDS011;9598;50.954;3.112;2023-01-04T07:43:44;6.70;;;2.08;;
18931;SDS011;9598;50.954;3.112;2023-01-04T07:48:46;15.30;;;2.80;;
18931;SDS011;9598;50.954;3.112;2023-01-04T07:53:48;8.93;;;2.70;;
18931;SDS011;9598;50.954;3.112;2023-01-04T07:58:52;4.22;;;1.83;;
18931;SDS011;9598;50.954;3.112;2023-01-04T08:03:56;15.30;;;2.80;;
18931;SDS011;9598;50.954;3.112;2023-01-04T08:08:58;7.63;;;2.85;;
18931;SDS011;9598;50.954;3.112;2023-01-04T08:14:02;8.50;;;3.13;;
18931;SDS011;9598;50.954;3.112;2023-01-04T08:19:05;9.85;;;2.67;;
18931;SDS011;9598;50.954;3.112;2023-01-04T08:24:09;8.52;;;2.75;;
18931;SDS011;9598;50.954;3.112;2023-01-04T08:29:13;11.77;;;2.50;;
18931;SDS011;9598;50.954;3.112;2023-01-04T08:34:16;7.97;;;2.90;;
18931;SDS011;9598;50.954;3.112;2023-01-04T08:39:18;8.10;;;2.13;;
18931;SDS011;9598;50.954;3.112;2023-01-04T08:44:22;5.50;;;1.80;;
18931;SDS011;9598;50.954;3.112;2023-01-04T08:49:25;7.93;;;2.70;;
18931;SDS011;9598;50.954;3.112;2023-01-04T08:54:28;4.53;;;1.90;;
18931;SDS011;9598;50.954;3.112;2023-01-04T08:59:31;6.85;;;2.08;;
18931;SDS011;9598;50.954;3.112;2023-01-04T09:04:34;4.82;;;1.67;;
18931;SDS011;9598;50.954;3.112;2023-01-04T09:09:36;3.38;;;1.55;;
18931;SDS011;9598;50.954;3.112;2023-01-04T09:14:39;5.60;;;1.58;;
18931;SDS011;9598;50.954;3.112;2023-01-04T09:19:42;1.40;;;1.25;;
18931;SDS011;9598;50.954;3.112;2023-01-04T09:24:44;2.38;;;1.48;;
18931;SDS011;9598;50.954;3.112;2023-01-04T09:29:47;2.33;;;1.58;;
18931;SDS011;9598;50.954;3.112;2023-01-04T09:34:49;2.50;;;1.40;;
18931;SDS011;9598;50.954;3.112;2023-01-04T09:39:54;2.17;;;1.13;;
18931;SDS011;9598;50.954;3.112;2023-01-04T09:45:00;2.88;;;1.67;;
18931;SDS011;9598;50.954;3.112;2023-01-04T09:50:16;2.65;;;1.67;;
18931;SDS011;9598;50.954;3.112;2023-01-04T09:55:22;2.47;;;1.48;;
18931;SDS011;9598;50.954;3.112;2023-01-04T10:00:30;1.95;;;1.35;;
18931;SDS011;9598;50.954;3.112;2023-01-04T10:05:34;1.60;;;1.23;;
18931;SDS011;9598;50.954;3.112;2023-01-04T10:10:46;3.33;;;1.45;;
18931;SDS011;9598;50.954;3.112;2023-01-04T10:15:55;1.50;;;1.40;;
18931;SDS011;9598;50.954;3.112;2023-01-04T10:21:27;1.23;;;1.00;;
18931;SDS011;9598;50.954;3.112;2023-01-04T10:26:38;2.45;;;0.98;;
18931;SDS011;9598;50.954;3.112;2023-01-04T10:31:48;0.90;;;0.90;;
18931;SDS011;9598;50.954;3.112;2023-01-04T10:36:55;1.60;;;0.80;;
18931;SDS011;9598;50.954;3.112;2023-01-04T10:42:02;1.98;;;0.90;;
18931;SDS011;9598;50.954;3.112;2023-01-04T10:47:13;1.70;;;0.90;;
18931;SDS011;9598;50.954;3.112;2023-01-04T10:52:21;1.60;;;0.68;;
18931;SDS011;9598;50.954;3.112;2023-01-04T10:57:30;0.80;;;0.80;;
18931;SDS011;9598;50.954;3.112;2023-01-04T11:02:39;1.35;;;0.93;;
18931;SDS011;9598;50.954;3.112;2023-01-04T11:07:49;1.67;;;1.35;;
18931;SDS011;9598;50.954;3.112;2023-01-04T11:12:57;1.30;;;1.10;;
18931;SDS011;9598;50.954;3.112;2023-01-04T11:18:01;1.58;;;1.10;;
18931;SDS011;9598;50.954;3.112;2023-01-04T11:23:06;1.60;;;0.90;;
18931;SDS011;9598;50.954;3.112;2023-01-04T11:28:14;1.48;;;1.00;;
18931;SDS011;9598;50.954;3.112;2023-01-04T11:33:22;1.58;;;1.17;;
18931;SDS011;9598;50.954;3.112;2023-01-04T11:38:25;2.70;;;1.30;;
18931;SDS011;9598;50.954;3.112;2023-01-04T11:43:29;1.30;;;1.10;;
18931;SDS011;9598;50.954;3.112;2023-01-04T11:48:34;2.50;;;1.17;;
18931;SDS011;9598;50.954;3.112;2023-01-04T11:53:38;1.42;;;1.33;;
18931;SDS011;9598;50.954;3.112;2023-01-04T11:58:41;3.45;;;1.45;;
18931;SDS011;9598;50.954;3.112;2023-01-04T12:03:46;3.03;;;1.95;;
18931;SDS011;9598;50.954;3.112;2023-01-04T12:08:48;3.40;;;1.40;;
18931;SDS011;9598;50.954;3.112;2023-01-04T12:13:50;3.67;;;1.48;;
18931;SDS011;9598;50.954;3.112;2023-01-04T12:18:54;6.30;;;1.98;;
18931;SDS011;9598;50.954;3.112;2023-01-04T12:23:56;3.45;;;1.88;;
18931;SDS011;9598;50.954;3.112;2023-01-04T12:34:42;4.30;;;1.77;;
18931;SDS011;9598;50.954;3.112;2023-01-04T12:39:45;10.32;;;2.42;;
18931;SDS011;9598;50.954;3.112;2023-01-04T12:45:02;8.13;;;2.00;;
18931;SDS011;9598;50.954;3.112;2023-01-04T12:50:15;10.40;;;2.65;;
18931;SDS011;9598;50.954;3.112;2023-01-04T13:01:07;8.43;;;3.20;;
18931;SDS011;9598;50.954;3.112;2023-01-04T13:06:21;12.38;;;3.45;;
18931;SDS011;9598;50.954;3.112;2023-01-04T13:11:38;9.50;;;2.92;;
18931;SDS011;9598;50.954;3.112;2023-01-04T13:17:02;7.18;;;2.88;;
18931;SDS011;9598;50.954;3.112;2023-01-04T13:22:18;11.18;;;3.58;;
18931;SDS011;9598;50.954;3.112;2023-01-04T13:27:23;9.55;;;3.75;;
18931;SDS011;9598;50.954;3.112;2023-01-04T13:32:25;12.75;;;3.42;;
18931;SDS011;9598;50.954;3.112;2023-01-04T13:37:32;5.53;;;2.50;;
18931;SDS011;9598;50.954;3.112;2023-01-04T13:42:38;7.70;;;2.40;;
18931;SDS011;9598;50.954;3.112;2023-01-04T13:47:41;8.85;;;2.88;;
18931;SDS011;9598;50.954;3.112;2023-01-04T13:52:46;7.13;;;3.03;;
18931;SDS011;9598;50.954;3.112;2023-01-04T13:57:52;6.97;;;2.45;;
18931;SDS011;9598;50.954;3.112;2023-01-04T14:03:03;4.45;;;1.80;;
18931;SDS011;9598;50.954;3.112;2023-01-04T14:08:18;4.10;;;1.27;;
18931;SDS011;9598;50.954;3.112;2023-01-04T14:13:25;2.88;;;1.48;;
18931;SDS011;9598;50.954;3.112;2023-01-04T14:18:28;4.78;;;1.67;;
18931;SDS011;9598;50.954;3.112;2023-01-04T14:23:35;10.35;;;2.90;;
18931;SDS011;9598;50.954;3.112;2023-01-04T14:28:38;9.38;;;3.08;;
18931;SDS011;9598;50.954;3.112;2023-01-04T14:33:42;14.90;;;4.15;;
18931;SDS011;9598;50.954;3.112;2023-01-04T14:38:50;14.25;;;4.05;;
18931;SDS011;9598;50.954;3.112;2023-01-04T14:44:10;16.27;;;4.60;;
18931;SDS011;9598;50.954;3.112;2023-01-04T14:49:13;21.38;;;5.65;;
18931;SDS011;9598;50.954;3.112;2023-01-04T14:54:18;20.88;;;5.95;;
18931;SDS011;9598;50.954;3.112;2023-01-04T14:59:21;18.90;;;5.85;;
18931;SDS011;9598;50.954;3.112;2023-01-04T15:04:24;25.02;;;6.78;;
18931;SDS011;9598;50.954;3.112;2023-01-04T15:09:28;27.63;;;6.90;;
18931;SDS011;9598;50.954;3.112;2023-01-04T15:14:30;23.67;;;6.55;;
18931;SDS011;9598;50.954;3.112;2023-01-04T15:19:33;30.40;;;7.55;;
18931;SDS011;9598;50.954;3.112;2023-01-04T15:24:37;25.90;;;6.82;;
18931;SDS011;9598;50.954;3.112;2023-01-04T15:29:39;30.38;;;7.72;;
18931;SDS011;9598;50.954;3.112;2023-01-04T15:34:41;28.42;;;7.95;;
18931;SDS011;9598;50.954;3.112;2023-01-04T15:39:46;31.90;;;7.85;;
18931;SDS011;9598;50.954;3.112;2023-01-04T15:44:48;28.60;;;7.35;;
18931;SDS011;9598;50.954;3.112;2023-01-04T15:49:50;26.80;;;7.78;;
18931;SDS011;9598;50.954;3.112;2023-01-04T15:54:55;30.00;;;8.43;;
18931;SDS011;9598;50.954;3.112;2023-01-04T15:59:57;27.95;;;7.03;;
18931;SDS011;9598;50.954;3.112;2023-01-04T16:04:59;26.98;;;6.90;;
18931;SDS011;9598;50.954;3.112;2023-01-04T16:10:04;25.35;;;7.47;;
18931;SDS011;9598;50.954;3.112;2023-01-04T16:15:07;31.67;;;8.65;;
18931;SDS011;9598;50.954;3.112;2023-01-04T16:20:11;31.52;;;9.20;;
18931;SDS011;9598;50.954;3.112;2023-01-04T16:25:16;36.53;;;9.23;;
18931;SDS011;9598;50.954;3.112;2023-01-04T16:30:18;30.02;;;8.07;;
18931;SDS011;9598;50.954;3.112;2023-01-04T16:35:20;28.88;;;7.82;;
18931;SDS011;9598;50.954;3.112;2023-01-04T16:40:24;25.35;;;7.80;;
18931;SDS011;9598;50.954;3.112;2023-01-04T16:45:26;32.33;;;8.45;;
18931;SDS011;9598;50.954;3.112;2023-01-04T16:50:29;29.27;;;7.97;;
18931;SDS011;9598;50.954;3.112;2023-01-04T16:55:32;28.85;;;8.57;;
18931;SDS011;9598;50.954;3.112;2023-01-04T17:00:35;26.58;;;8.38;;
18931;SDS011;9598;50.954;3.112;2023-01-04T17:05:37;31.83;;;8.05;;
18931;SDS011;9598;50.954;3.112;2023-01-04T17:10:41;31.33;;;7.22;;
18931;SDS011;9598;50.954;3.112;2023-01-04T17:15:43;25.95;;;7.35;;
18931;SDS011;9598;50.954;3.112;2023-01-04T17:20:50;24.88;;;7.40;;
18931;SDS011;9598;50.954;3.112;2023-01-04T17:25:58;30.17;;;6.68;;
18931;SDS011;9598;50.954;3.112;2023-01-04T17:31:04;22.42;;;7.00;;
18931;SDS011;9598;50.954;3.112;2023-01-04T17:36:07;29.05;;;7.63;;
18931;SDS011;9598;50.954;3.112;2023-01-04T17:41:14;28.88;;;7.20;;
18931;SDS011;9598;50.954;3.112;2023-01-04T17:46:18;25.92;;;6.13;;
18931;SDS011;9598;50.954;3.112;2023-01-04T17:51:22;23.65;;;7.10;;
18931;SDS011;9598;50.954;3.112;2023-01-04T17:56:27;31.90;;;8.27;;
18931;SDS011;9598;50.954;3.112;2023-01-04T18:01:32;29.33;;;7.60;;
18931;SDS011;9598;50.954;3.112;2023-01-04T18:06:35;25.60;;;7.25;;
18931;SDS011;9598;50.954;3.112;2023-01-04T18:11:39;28.67;;;9.30;;
18931;SDS011;9598;50.954;3.112;2023-01-04T18:16:42;28.25;;;6.93;;
18931;SDS011;9598;50.954;3.112;2023-01-04T18:21:56;30.33;;;8.27;;
18931;SDS011;9598;50.954;3.112;2023-01-04T18:27:00;30.10;;;7.82;;
18931;SDS011;9598;50.954;3.112;2023-01-04T18:32:02;28.67;;;8.07;;
18931;SDS011;9598;50.954;3.112;2023-01-04T18:37:05;32.67;;;8.93;;
18931;SDS011;9598;50.954;3.112;2023-01-04T18:42:08;27.15;;;7.45;;
18931;SDS011;9598;50.954;3.112;2023-01-04T18:47:10;26.45;;;7.43;;
18931;SDS011;9598;50.954;3.112;2023-01-04T18:52:13;28.85;;;7.63;;
18931;SDS011;9598;50.954;3.112;2023-01-04T18:57:16;24.70;;;6.45;;
18931;SDS011;9598;50.954;3.112;2023-01-04T19:02:18;27.48;;;7.07;;
18931;SDS011;9598;50.954;3.112;2023-01-04T19:07:21;27.48;;;7.07;;
18931;SDS011;9598;50.954;3.112;2023-01-04T19:12:25;21.73;;;7.57;;
18931;SDS011;9598;50.954;3.112;2023-01-04T19:17:27;30.27;;;6.95;;
18931;SDS011;9598;50.954;3.112;2023-01-04T19:22:29;19.48;;;6.38;;
18931;SDS011;9598;50.954;3.112;2023-01-04T19:27:32;23.63;;;6.35;;
18931;SDS011;9598;50.954;3.112;2023-01-04T19:32:34;28.23;;;7.30;;
18931;SDS011;9598;50.954;3.112;2023-01-04T19:37:37;22.80;;;6.60;;
18931;SDS011;9598;50.954;3.112;2023-01-04T19:42:40;25.00;;;6.85;;
18931;SDS011;9598;50.954;3.112;2023-01-04T19:47:43;28.00;;;7.57;;
18931;SDS011;9598;50.954;3.112;2023-01-04T19:52:45;20.48;;;6.35;;
18931;SDS011;9598;50.954;3.112;2023-01-04T19:57:49;20.80;;;5.80;;
18931;SDS011;9598;50.954;3.112;2023-01-04T20:02:51;19.88;;;5.85;;
18931;SDS011;9598;50.954;3.112;2023-01-04T20:07:53;22.15;;;6.70;;
18931;SDS011;9598;50.954;3.112;2023-01-04T20:12:57;15.38;;;5.80;;
18931;SDS011;9598;50.954;3.112;2023-01-04T20:17:59;17.80;;;5.38;;
18931;SDS011;9598;50.954;3.112;2023-01-04T20:23:01;21.90;;;5.68;;
18931;SDS011;9598;50.954;3.112;2023-01-04T20:28:05;20.90;;;6.70;;
18931;SDS011;9598;50.954;3.112;2023-01-04T20:33:07;21.88;;;5.75;;
18931;SDS011;9598;50.954;3.112;2023-01-04T20:38:10;20.38;;;7.15;;
18931;SDS011;9598;50.954;3.112;2023-01-04T20:43:13;21.85;;;6.05;;
18931;SDS011;9598;50.954;3.112;2023-01-04T20:48:35;23.00;;;6.20;;
18931;SDS011;9598;50.954;3.112;2023-01-04T20:53:37;20.60;;;5.35;;
18931;SDS011;9598;50.954;3.112;2023-01-04T20:58:41;22.63;;;5.45;;
18931;SDS011;9598;50.954;3.112;2023-01-04T21:03:43;21.83;;;6.03;;
18931;SDS011;9598;50.954;3.112;2023-01-04T21:08:46;24.60;;;6.82;;
18931;SDS011;9598;50.954;3.112;2023-01-04T21:13:51;24.98;;;6.78;;
18931;SDS011;9598;50.954;3.112;2023-01-04T21:18:53;22.00;;;6.18;;
18931;SDS011;9598;50.954;3.112;2023-01-04T21:23:55;25.23;;;6.05;;
18931;SDS011;9598;50.954;3.112;2023-01-04T21:28:58;20.95;;;6.20;;
18931;SDS011;9598;50.954;3.112;2023-01-04T21:34:01;20.73;;;5.93;;
18931;SDS011;9598;50.954;3.112;2023-01-04T21:39:04;23.23;;;5.82;;
18931;SDS011;9598;50.954;3.112;2023-01-04T21:44:07;24.77;;;5.95;;
18931;SDS011;9598;50.954;3.112;2023-01-04T21:49:10;22.08;;;6.28;;
18931;SDS011;9598;50.954;3.112;2023-01-04T21:54:12;28.33;;;7.35;;
18931;SDS011;9598;50.954;3.112;2023-01-04T21:59:16;23.92;;;6.85;;
18931;SDS011;9598;50.954;3.112;2023-01-04T22:04:18;23.95;;;6.47;;
18931;SDS011;9598;50.954;3.112;2023-01-04T22:09:20;29.73;;;6.70;;
18931;SDS011;9598;50.954;3.112;2023-01-04T22:14:23;27.95;;;7.18;;
18931;SDS011;9598;50.954;3.112;2023-01-04T22:19:26;25.30;;;6.88;;
18931;SDS011;9598;50.954;3.112;2023-01-04T22:24:28;23.92;;;6.53;;
18931;SDS011;9598;50.954;3.112;2023-01-04T22:29:31;27.90;;;6.28;;
18931;SDS011;9598;50.954;3.112;2023-01-04T22:34:34;26.15;;;6.82;;
18931;SDS011;9598;50.954;3.112;2023-01-04T22:39:36;22.00;;;6.68;;
18931;SDS011;9598;50.954;3.112;2023-01-04T22:44:40;24.10;;;6.63;;
18931;SDS011;9598;50.954;3.112;2023-01-04T22:49:42;25.10;;;6.75;;
18931;SDS011;9598;50.954;3.112;2023-01-04T22:54:46;27.25;;;7.03;;
18931;SDS011;9598;50.954;3.112;2023-01-04T22:59:49;28.75;;;6.53;;
18931;SDS011;9598;50.954;3.112;2023-01-04T23:04:52;24.55;;;7.20;;
18931;SDS011;9598;50.954;3.112;2023-01-04T23:09:54;23.10;;;6.70;;
18931;SDS011;9598;50.954;3.112;2023-01-04T23:14:57;23.45;;;6.85;;
18931;SDS011;9598;50.954;3.112;2023-01-04T23:20:03;25.95;;;7.03;;
18931;SDS011;9598;50.954;3.112;2023-01-04T23:25:06;26.55;;;7.25;;
18931;SDS011;9598;50.954;3.112;2023-01-04T23:30:13;26.10;;;7.30;;
18931;SDS011;9598;50.954;3.112;2023-01-04T23:35:16;23.05;;;5.95;;
18931;SDS011;9598;50.954;3.112;2023-01-04T23:40:18;29.98;;;6.82;;
18931;SDS011;9598;50.954;3.112;2023-01-04T23:45:22;24.65;;;6.70;;
18931;SDS011;9598;50.954;3.112;2023-01-04T23:50:24;22.90;;;6.50;;
18931;SDS011;9598;50.954;3.112;2023-01-04T23:55:27;22.45;;;6.75;;
